Time;durP1;ratioP1;P1;durP2;ratioP2;P2;SDS_P1;SDS_P2;PMS_P1;PMS_P2;Temp;Humidity;BMP_temperature;BMP_pressure;BME280_temperature;BME280_humidity;BME280_pressure;Samples;Min_cycle;Max_cycle;Signal;HPM_P1;HPM_P2
2023/04/12 00:00:10;;;;;;;;;;;;;;;-142.25;100.00;58004.16;4912756;29;19926;-67
2023/04/12 00:02:36;;;;;;;;;;;;;;;-142.25;100.00;58004.16;4913735;29;20001;-67
2023/04/12 00:05:02;;;;;;;;;;;;;;;-142.25;100.00;58004.16;4917748;29;19931;-67
2023/04/12 00:07:28;;;;;;;;;;;;;;;-142.25;100.00;58004.16;4916427;29;19930;-67
2023/04/12 00:09:54;;;;;;;;;;;;;;;-142.25;100.00;58004.16;4916414;29;19927;-66
2023/04/12 00:12:19;;;;;;;;;;;;;;;-142.25;100.00;58004.16;4916098;29;19941;-67
2023/04/12 00:14:45;;;;;;;;;;;;;;;-142.25;100.00;58004.16;4923707;29;19927;-66
2023/04/12 00:17:11;;;;;;;;;;;;;;;-142.25;100.00;58004.16;4916237;29;20429;-66
2023/04/12 00:19:40;;;;;;;;;;;;;;;-142.25;100.00;58004.16;4918124;29;19931;-67
2023/04/12 00:22:07;;;;;;;;;;;;;;;-142.25;100.00;58004.16;4916753;29;19927;-66
2023/04/12 00:24:32;;;;;;;;;;;;;;;-142.25;100.00;58004.16;4915765;29;19922;-67
2023/04/12 00:27:00;;;;;;;;;;;;;;;-142.25;100.00;58004.16;4914755;29;19938;-65
2023/04/12 00:29:26;;;;;;;;;;;;;;;-142.25;100.00;58004.16;4915995;29;19927;-65
2023/04/12 00:31:52;;;;;;;;;;;;;;;-142.25;100.00;58004.16;4915681;29;19982;-66
2023/04/12 00:34:17;;;;;;;;;;;;;;;-142.25;100.00;58004.16;4916902;29;19954;-67
2023/04/12 00:36:43;;;;;;;;;;;;;;;-142.25;100.00;58004.16;4915278;29;20362;-67
2023/04/12 00:39:09;;;;;;;;;;;;;;;-142.25;100.00;58004.16;4913767;29;19927;-67
2023/04/12 00:41:37;;;;;;;;;;;;;;;-142.25;100.00;58004.16;4915963;29;19979;-67
2023/04/12 00:44:03;;;;;;;;;;;;;;;-142.25;100.00;58004.16;4917473;29;19978;-65
2023/04/12 00:46:29;;;;;;;;;;;;;;;-142.25;100.00;58004.16;4913004;29;19927;-65
2023/04/12 00:48:56;;;;;;;;;;;;;;;-142.25;100.00;58004.16;4916177;29;19923;-66
2023/04/12 00:51:24;;;;;;;;;;;;;;;-142.25;100.00;58004.16;4916015;29;19969;-65
2023/04/12 00:53:52;;;;;;;;;;;;;;;-142.25;100.00;58004.16;4915257;29;20406;-65
2023/04/12 00:56:18;;;;;;;;;;;;;;;-142.25;100.00;58004.16;4916190;29;20020;-66
2023/04/12 00:58:44;;;;;;;;;;;;;;;-142.25;100.00;58004.16;4899508;29;19922;-65
2023/04/12 01:01:10;;;;;;;;;;;;;;;-142.25;100.00;58004.16;4929342;29;20540;-67
2023/04/12 01:03:41;;;;;;;;;;;;;;;-142.25;100.00;58004.16;4913947;29;19970;-66
2023/04/12 01:06:09;;;;;;;;;;;;;;;-142.25;100.00;58004.16;4915824;29;19941;-65
2023/04/12 01:08:54;;;;;;;;;;;;;;;-142.25;100.00;58004.16;4917175;29;19966;-65
2023/04/12 01:11:22;;;;;;;;;;;;;;;-142.25;100.00;58004.16;4916065;29;19934;-67
2023/04/12 01:13:51;;;;;;;;;;;;;;;-142.25;100.00;58004.16;4916694;29;19927;-65
2023/04/12 01:16:34;;;;;;;;;;;;;;;-142.25;100.00;58004.16;4912792;29;19923;-66
2023/04/12 01:19:04;;;;;;;;;;;;;;;-142.25;100.00;58004.16;4930847;29;19923;-66
2023/04/12 01:21:39;;;;;;;;;;;;;;;-142.25;100.00;58004.16;4916209;29;20508;-65
2023/04/12 01:24:14;;;;;;;;;;;;;;;-142.25;100.00;58004.16;4913994;29;19922;-66
2023/04/12 01:26:43;;;;;;;;;;;;;;;-142.25;100.00;58004.16;4921485;29;19969;-66
2023/04/12 01:29:18;;;;;;;;;;;;;;;-142.25;100.00;58004.16;4912996;29;19934;-66
2023/04/12 01:31:53;;;;;;;;;;;;;;;-142.25;100.00;58004.16;4914269;29;20003;-66
2023/04/12 01:34:22;;;;;;;;;;;;;;;-142.25;100.00;58004.16;4914300;29;19974;-68
2023/04/12 01:36:48;;;;;;;;;;;;;;;-142.25;100.00;58004.16;4914169;29;19991;-66
2023/04/12 01:39:14;;;;;;;;;;;;;;;-142.25;100.00;58004.16;4914983;29;19927;-66
2023/04/12 01:41:44;;;;;;;;;;;;;;;-142.25;100.00;58004.16;4914927;29;20013;-67
2023/04/12 01:44:13;;;;;;;;;;;;;;;-142.25;100.00;58004.16;4913726;29;19927;-66
2023/04/12 01:46:39;;;;;;;;;;;;;;;-142.25;100.00;58004.16;4913748;29;20381;-66
2023/04/12 01:49:04;;;;;;;;;;;;;;;-142.25;100.00;58004.16;4915304;29;20294;-65
2023/04/12 01:51:30;;;;;;;;;;;;;;;-142.25;100.00;58004.16;4913215;29;20275;-65
2023/04/12 01:54:03;;;;;;;;;;;;;;;-142.25;100.00;58004.16;4919863;29;20339;-65
2023/04/12 01:56:30;;;;;;;;;;;;;;;-142.25;100.00;58004.16;4914075;29;20366;-65
2023/04/12 01:58:56;;;;;;;;;;;;;;;-142.25;100.00;58004.16;4914412;29;19962;-64
2023/04/12 02:01:22;;;;;;;;;;;;;;;-142.25;100.00;58004.16;4930006;29;20447;-64
2023/04/12 02:03:48;;;;;;;;;;;;;;;-142.25;100.00;58004.16;4930162;29;19922;-64
2023/04/12 02:06:14;;;;;;;;;;;;;;;-142.25;100.00;58004.16;4915199;29;19926;-66
2023/04/12 02:08:40;;;;;;;;;;;;;;;-142.25;100.00;58004.16;4913720;29;19966;-65
2023/04/12 02:11:08;;;;;;;;;;;;;;;-142.25;100.00;58004.16;4914251;29;19954;-64
2023/04/12 02:13:33;;;;;;;;;;;;;;;-142.25;100.00;58004.16;4913018;29;20010;-65
2023/04/12 02:16:01;;;;;;;;;;;;;;;-142.25;100.00;58004.16;4914511;29;19926;-65
2023/04/12 02:18:26;;;;;;;;;;;;;;;-142.25;100.00;58004.16;4913006;29;19933;-65
2023/04/12 02:20:52;;;;;;;;;;;;;;;-142.25;100.00;58004.16;4931831;29;19967;-65
2023/04/12 02:23:18;;;;;;;;;;;;;;;-142.25;100.00;58004.16;4928698;29;20029;-66
2023/04/12 02:25:45;;;;;;;;;;;;;;;-142.25;100.00;58004.16;4913528;29;19959;-65
2023/04/12 02:28:12;;;;;;;;;;;;;;;-142.25;100.00;58004.16;4912237;29;19926;-65
2023/04/12 02:30:42;;;;;;;;;;;;;;;-142.25;100.00;58004.16;4914019;29;20262;-65
2023/04/12 02:33:10;;;;;;;;;;;;;;;-142.25;100.00;58004.16;4928209;29;19927;-65
2023/04/12 02:35:36;;;;;;;;;;;;;;;-142.25;100.00;58004.16;4916563;29;19927;-65
2023/04/12 02:38:07;;;;;;;;;;;;;;;-142.25;100.00;58004.16;4927799;29;19927;-64
2023/04/12 02:40:37;;;;;;;;;;;;;;;-142.25;100.00;58004.16;4928249;29;19934;-64
2023/04/12 02:43:03;;;;;;;;;;;;;;;-142.25;100.00;58004.16;4912768;29;19993;-64
2023/04/12 02:45:28;;;;;;;;;;;;;;;-142.25;100.00;58004.16;4913160;29;20446;-64
2023/04/12 02:47:55;;;;;;;;;;;;;;;-142.25;100.00;58004.16;4910728;29;19930;-65
2023/04/12 02:50:24;;;;;;;;;;;;;;;-142.25;100.00;58004.16;4909745;29;19931;-65
2023/04/12 02:52:57;;;;;;;;;;;;;;;-142.25;100.00;58004.16;4911648;29;20061;-65
2023/04/12 02:55:24;;;;;;;;;;;;;;;-142.25;100.00;58004.16;4911364;29;20026;-65
2023/04/12 02:57:50;;;;;;;;;;;;;;;-142.25;100.00;58004.16;4912756;29;19974;-65
2023/04/12 03:00:16;;;;;;;;;;;;;;;-142.25;100.00;58004.16;4904342;29;20029;-65
2023/04/12 03:02:50;;;;;;;;;;;;;;;-142.25;100.00;58004.16;4911615;29;20014;-65
2023/04/12 03:05:21;;;;;;;;;;;;;;;-142.25;100.00;58004.16;4912985;29;19930;-65
2023/04/12 03:07:47;;;;;;;;;;;;;;;-142.25;100.00;58004.16;4910977;29;20172;-65
2023/04/12 03:10:17;;;;;;;;;;;;;;;-142.25;100.00;58004.16;4911052;29;19927;-65
2023/04/12 03:12:48;;;;;;;;;;;;;;;-142.25;100.00;58004.16;4912079;29;19922;-65
2023/04/12 03:15:19;;;;;;;;;;;;;;;-142.25;100.00;58004.16;4913901;29;20273;-65
2023/04/12 03:17:47;;;;;;;;;;;;;;;-142.25;100.00;58004.16;4914277;29;20255;-65
2023/04/12 03:20:16;;;;;;;;;;;;;;;-142.25;100.00;58004.16;4912026;29;19926;-66
2023/04/12 03:22:47;;;;;;;;;;;;;;;-142.25;100.00;58004.16;4912797;29;19974;-65
2023/04/12 03:25:13;;;;;;;;;;;;;;;-142.25;100.00;58004.16;4927063;29;19930;-66
2023/04/12 03:27:45;;;;;;;;;;;;;;;-142.25;100.00;58004.16;4929336;29;20298;-65
2023/04/12 03:30:14;;;;;;;;;;;;;;;-142.25;100.00;58004.16;4914003;29;20006;-66
2023/04/12 03:32:41;;;;;;;;;;;;;;;-142.25;100.00;58004.16;4913265;29;19926;-65
2023/04/12 03:35:08;;;;;;;;;;;;;;;-142.25;100.00;58004.16;4913719;29;20002;-65
2023/04/12 03:37:35;;;;;;;;;;;;;;;-142.25;100.00;58004.16;4922038;29;19962;-64
2023/04/12 03:40:01;;;;;;;;;;;;;;;-142.25;100.00;58004.16;4912507;29;20070;-64
2023/04/12 03:42:27;;;;;;;;;;;;;;;-142.25;100.00;58004.16;4915816;29;19926;-64
2023/04/12 03:44:53;;;;;;;;;;;;;;;-142.25;100.00;58004.16;4926948;29;20017;-65
2023/04/12 03:47:20;;;;;;;;;;;;;;;-142.25;100.00;58004.16;4921927;29;19926;-66
2023/04/12 03:49:46;;;;;;;;;;;;;;;-142.25;100.00;58004.16;4910403;29;19927;-64
2023/04/12 03:52:12;;;;;;;;;;;;;;;-142.25;100.00;58004.16;4909722;29;20005;-64
2023/04/12 03:54:40;;;;;;;;;;;;;;;-142.25;100.00;58004.16;4912967;29;19927;-66
2023/04/12 03:57:09;;;;;;;;;;;;;;;-142.25;100.00;58004.16;4912076;29;19923;-65
2023/04/12 03:59:42;;;;;;;;;;;;;;;-142.25;100.00;58004.16;4928353;29;20374;-64
2023/04/12 04:02:08;;;;;;;;;;;;;;;-142.25;100.00;58004.16;4912136;29;20677;-64
2023/04/12 04:04:41;;;;;;;;;;;;;;;-142.25;100.00;58004.16;4911635;29;19982;-63
2023/04/12 04:07:11;;;;;;;;;;;;;;;-142.25;100.00;58004.16;4912269;29;20330;-63
2023/04/12 04:09:42;;;;;;;;;;;;;;;-142.25;100.00;58004.16;4913567;29;19934;-63
2023/04/12 04:12:09;;;;;;;;;;;;;;;-142.25;100.00;58004.16;4913477;29;19933;-65
2023/04/12 04:14:38;;;;;;;;;;;;;;;-142.25;100.00;58004.16;4928505;29;19977;-64
2023/04/12 04:17:07;;;;;;;;;;;;;;;-142.25;100.00;58004.16;4919317;29;19973;-63
2023/04/12 04:19:33;;;;;;;;;;;;;;;-142.25;100.00;58004.16;4927121;29;19923;-63
2023/04/12 04:22:00;;;;;;;;;;;;;;;-142.25;100.00;58004.16;4915223;29;20012;-66
2023/04/12 04:24:26;;;;;;;;;;;;;;;-142.25;100.00;58004.16;4914249;29;19929;-63
2023/04/12 04:26:55;;;;;;;;;;;;;;;-142.25;100.00;58004.16;4904785;29;19934;-64
2023/04/12 04:29:24;;;;;;;;;;;;;;;-142.25;100.00;58004.16;4927140;29;20461;-63
2023/04/12 04:31:52;;;;;;;;;;;;;;;-142.25;100.00;58004.16;4902385;29;19923;-64
2023/04/12 04:34:18;;;;;;;;;;;;;;;-142.25;100.00;58004.16;4910562;29;19937;-64
2023/04/12 04:36:45;;;;;;;;;;;;;;;-142.25;100.00;58004.16;4913613;29;19927;-64
2023/04/12 04:39:18;;;;;;;;;;;;;;;-142.25;100.00;58004.16;4912064;29;19930;-63
2023/04/12 04:41:43;;;;;;;;;;;;;;;-142.25;100.00;58004.16;4912831;29;19923;-63
2023/04/12 04:44:17;;;;;;;;;;;;;;;-142.25;100.00;58004.16;4911484;29;20528;-64
2023/04/12 04:46:51;;;;;;;;;;;;;;;-142.25;100.00;58004.16;4912190;29;19926;-63
2023/04/12 04:49:17;;;;;;;;;;;;;;;-142.25;100.00;58004.16;4914471;29;19934;-63
2023/04/12 04:51:42;;;;;;;;;;;;;;;-142.25;100.00;58004.16;4914397;29;19934;-63
2023/04/12 04:54:10;;;;;;;;;;;;;;;-142.25;100.00;58004.16;4913420;29;19927;-62
2023/04/12 04:56:39;;;;;;;;;;;;;;;-142.25;100.00;58004.16;4914773;29;19990;-62
2023/04/12 04:59:05;;;;;;;;;;;;;;;-142.25;100.00;58004.16;4928384;29;20405;-63
2023/04/12 05:01:34;;;;;;;;;;;;;;;-142.25;100.00;58004.16;4931751;29;19926;-61
2023/04/12 05:04:01;;;;;;;;;;;;;;;-142.25;100.00;58004.16;4929576;29;20404;-60
2023/04/12 05:06:26;;;;;;;;;;;;;;;-142.25;100.00;58004.16;4929514;29;19922;-59
2023/04/12 05:08:52;;;;;;;;;;;;;;;-142.25;100.00;58004.16;4928291;29;20601;-61
2023/04/12 05:11:19;;;;;;;;;;;;;;;-142.25;100.00;58004.16;4913612;29;19927;-61
2023/04/12 05:13:45;;;;;;;;;;;;;;;-142.25;100.00;58004.16;4916436;29;19927;-60
2023/04/12 05:16:11;;;;;;;;;;;;;;;-142.25;100.00;58004.16;4916210;29;19927;-60
2023/04/12 05:18:37;;;;;;;;;;;;;;;-142.25;100.00;58004.16;4929075;28;20049;-61
2023/04/12 05:21:03;;;;;;;;;;;;;;;-142.25;100.00;58004.16;4929399;29;20453;-61
2023/04/12 05:23:28;;;;;;;;;;;;;;;-142.25;100.00;58004.16;4915420;29;19994;-61
2023/04/12 05:25:54;;;;;;;;;;;;;;;-142.25;100.00;58004.16;4928937;29;19970;-60
2023/04/12 05:28:21;;;;;;;;;;;;;;;-142.25;100.00;58004.16;4921403;29;19994;-61
2023/04/12 05:30:47;;;;;;;;;;;;;;;-142.25;100.00;58004.16;4912655;29;20070;-60
2023/04/12 05:33:18;;;;;;;;;;;;;;;-142.25;100.00;58004.16;4913343;29;19980;-60
2023/04/12 05:35:45;;;;;;;;;;;;;;;-142.25;100.00;58004.16;4912588;29;19946;-60
2023/04/12 05:38:11;;;;;;;;;;;;;;;-142.25;100.00;58004.16;4914035;29;19923;-60
2023/04/12 05:40:37;;;;;;;;;;;;;;;-142.25;100.00;58004.16;4913233;29;19938;-60
2023/04/12 05:43:05;;;;;;;;;;;;;;;-142.25;100.00;58004.16;4912687;29;20438;-59
2023/04/12 05:45:30;;;;;;;;;;;;;;;-142.25;100.00;58004.16;4910526;29;19938;-60
2023/04/12 05:47:57;;;;;;;;;;;;;;;-142.25;100.00;58004.16;4912510;29;19930;-60
2023/04/12 05:50:23;;;;;;;;;;;;;;;-142.25;100.00;58004.16;4915685;29;20334;-60
2023/04/12 05:52:49;;;;;;;;;;;;;;;-142.25;100.00;58004.16;4929486;29;20049;-60
2023/04/12 05:55:16;;;;;;;;;;;;;;;-142.25;100.00;58004.16;4912026;29;20009;-60
2023/04/12 05:57:43;;;;;;;;;;;;;;;-142.25;100.00;58004.16;4920148;29;20553;-63
2023/04/12 06:00:15;;;;;;;;;;;;;;;-142.25;100.00;58004.16;4910369;29;20055;-60
2023/04/12 06:02:43;;;;;;;;;;;;;;;-142.25;100.00;58004.16;4929116;29;20419;-61
2023/04/12 06:05:10;;;;;;;;;;;;;;;-142.25;100.00;58004.16;4912272;29;20017;-62
2023/04/12 06:07:38;;;;;;;;;;;;;;;-142.25;100.00;58004.16;4919234;29;19922;-61
2023/04/12 06:10:04;;;;;;;;;;;;;;;-142.25;100.00;58004.16;4928254;29;20009;-61
2023/04/12 06:12:29;;;;;;;;;;;;;;;-142.25;100.00;58004.16;4911132;29;20302;-62
2023/04/12 06:14:55;;;;;;;;;;;;;;;-142.25;100.00;58004.16;4914819;29;19927;-61
2023/04/12 06:17:21;;;;;;;;;;;;;;;-142.25;100.00;58004.16;4913626;29;20363;-60
2023/04/12 06:19:47;;;;;;;;;;;;;;;-142.25;100.00;58004.16;4912931;29;20299;-59
2023/04/12 06:22:14;;;;;;;;;;;;;;;-142.25;100.00;58004.16;4914006;29;19926;-60
2023/04/12 06:24:40;;;;;;;;;;;;;;;-142.25;100.00;58004.16;4912898;29;20359;-60
2023/04/12 06:27:06;;;;;;;;;;;;;;;-142.25;100.00;58004.16;4933797;29;19969;-60
2023/04/12 06:29:32;;;;;;;;;;;;;;;-142.25;100.00;58004.16;4919264;29;19927;-60
2023/04/12 06:31:57;;;;;;;;;;;;;;;-142.25;100.00;58004.16;4913866;29;19966;-62
2023/04/12 06:34:23;;;;;;;;;;;;;;;-142.25;100.00;58004.16;4910117;29;20366;-62
2023/04/12 06:36:50;;;;;;;;;;;;;;;-142.25;100.00;58004.16;4911502;29;19953;-62
2023/04/12 06:39:15;;;;;;;;;;;;;;;-142.25;100.00;58004.16;4914167;29;19927;-62
2023/04/12 06:41:42;;;;;;;;;;;;;;;-142.25;100.00;58004.16;4914655;29;20139;-62
2023/04/12 06:44:08;;;;;;;;;;;;;;;-142.25;100.00;58004.16;4914497;29;19937;-61
2023/04/12 06:46:34;;;;;;;;;;;;;;;-142.25;100.00;58004.16;4914537;29;19962;-60
2023/04/12 06:49:00;;;;;;;;;;;;;;;-142.25;100.00;58004.16;4913529;29;20807;-60
2023/04/12 06:51:26;;;;;;;;;;;;;;;-142.25;100.00;58004.16;4912772;29;19927;-60
2023/04/12 06:53:52;;;;;;;;;;;;;;;-142.25;100.00;58004.16;4909225;29;19949;-60
2023/04/12 06:56:18;;;;;;;;;;;;;;;-142.25;100.00;58004.16;4911513;29;20418;-60
2023/04/12 06:58:43;;;;;;;;;;;;;;;-142.25;100.00;58004.16;4910722;29;19957;-65
2023/04/12 07:01:09;;;;;;;;;;;;;;;-142.25;100.00;58004.16;4913612;29;19966;-66
2023/04/12 07:03:35;;;;;;;;;;;;;;;-142.25;100.00;58004.16;4914016;29;20312;-63
2023/04/12 07:06:01;;;;;;;;;;;;;;;-142.25;100.00;58004.16;4913855;29;19922;-64
2023/04/12 07:08:36;;;;;;;;;;;;;;;-142.25;100.00;58004.16;4913359;29;19934;-64
2023/04/12 07:11:02;;;;;;;;;;;;;;;-142.25;100.00;58004.16;4912389;29;20445;-65
2023/04/12 07:13:27;;;;;;;;;;;;;;;-142.25;100.00;58004.16;4910152;29;20615;-62
2023/04/12 07:15:53;;;;;;;;;;;;;;;-142.25;100.00;58004.16;4911040;29;19927;-72
2023/04/12 07:18:19;;;;;;;;;;;;;;;-142.25;100.00;58004.16;4909862;29;19926;-73
2023/04/12 07:20:46;;;;;;;;;;;;;;;-142.25;100.00;58004.16;4914616;29;19926;-73
2023/04/12 07:23:11;;;;;;;;;;;;;;;-142.25;100.00;58004.16;4911488;29;19927;-74
2023/04/12 07:25:37;;;;;;;;;;;;;;;-142.25;100.00;58004.16;4912011;29;20453;-74
2023/04/12 07:28:03;;;;;;;;;;;;;;;-142.25;100.00;58004.16;4910721;29;19929;-74
2023/04/12 07:30:28;;;;;;;;;;;;;;;-142.25;100.00;58004.16;4913206;29;19923;-69
2023/04/12 07:32:54;;;;;;;;;;;;;;;-142.25;100.00;58004.16;4918127;29;19922;-73
2023/04/12 07:35:19;;;;;;;;;;;;;;;-142.25;100.00;58004.16;4913886;29;19922;-66
2023/04/12 07:37:45;;;;;;;;;;;;;;;-142.25;100.00;58004.16;4913356;29;20221;-71
2023/04/12 07:40:10;;;;;;;;;;;;;;;-142.25;100.00;58004.16;4911382;29;19930;-71
2023/04/12 07:42:36;;;;;;;;;;;;;;;-142.25;100.00;58004.16;4910174;29;20280;-71
2023/04/12 07:45:01;;;;;;;;;;;;;;;-142.25;100.00;58004.16;4911799;29;19973;-72
2023/04/12 07:47:27;;;;;;;;;;;;;;;-142.25;100.00;58004.16;4910339;29;19974;-72
2023/04/12 07:49:52;;;;;;;;;;;;;;;-142.25;100.00;58004.16;4913675;29;19926;-72
2023/04/12 07:52:18;;;;;;;;;;;;;;;-142.25;100.00;58004.16;4911697;29;19970;-72
2023/04/12 07:54:43;;;;;;;;;;;;;;;-142.25;100.00;58004.16;4913428;29;19919;-72
2023/04/12 07:57:08;;;;;;;;;;;;;;;-142.25;100.00;58004.16;4919796;29;19938;-72
2023/04/12 07:59:34;;;;;;;;;;;;;;;-142.25;100.00;58004.16;4911964;29;19923;-72
2023/04/12 08:01:59;;;;;;;;;;;;;;;-142.25;100.00;58004.16;4913238;29;19937;-73
2023/04/12 08:04:26;;;;;;;;;;;;;;;-142.25;100.00;58004.16;4909700;29;19923;-72
2023/04/12 08:06:53;;;;;;;;;;;;;;;-142.25;100.00;58004.16;4910747;29;20102;-73
2023/04/12 08:09:18;;;;;;;;;;;;;;;-142.25;100.00;58004.16;4911192;29;19989;-72
2023/04/12 08:11:44;;;;;;;;;;;;;;;-142.25;100.00;58004.16;4910459;29;20005;-73
2023/04/12 08:14:10;;;;;;;;;;;;;;;-142.25;100.00;58004.16;4913361;29;19922;-72
2023/04/12 08:16:35;;;;;;;;;;;;;;;-142.25;100.00;58004.16;4912497;29;19929;-72
2023/04/12 08:19:01;;;;;;;;;;;;;;;-142.25;100.00;58004.16;4911277;29;20357;-71
2023/04/12 08:21:26;;;;;;;;;;;;;;;-142.25;100.00;58004.16;4912112;29;19982;-71
2023/04/12 08:23:52;;;;;;;;;;;;;;;-142.25;100.00;58004.16;4912571;29;19927;-71
2023/04/12 08:26:17;;;;;;;;;;;;;;;-142.25;100.00;58004.16;4916422;29;19927;-71
2023/04/12 08:28:43;;;;;;;;;;;;;;;-142.25;100.00;58004.16;4918394;29;19927;-72
2023/04/12 08:31:09;;;;;;;;;;;;;;;-142.25;100.00;58004.16;4917668;29;19933;-72
2023/04/12 08:33:35;;;;;;;;;;;;;;;-142.25;100.00;58004.16;4914333;29;20050;-71
2023/04/12 08:36:00;;;;;;;;;;;;;;;-142.25;100.00;58004.16;4914906;29;19927;-70
2023/04/12 08:38:26;;;;;;;;;;;;;;;-142.25;100.00;58004.16;4917250;29;19993;-70
2023/04/12 08:40:51;;;;;;;;;;;;;;;-142.25;100.00;58004.16;4917300;29;20454;-72
2023/04/12 08:43:21;;;;;;;;;;;;;;;-142.25;100.00;58004.16;4915539;29;20079;-72
2023/04/12 08:45:48;;;;;;;;;;;;;;;-142.25;100.00;58004.16;4915208;29;20407;-71
2023/04/12 08:48:14;;;;;;;;;;;;;;;-142.25;100.00;58004.16;4917653;29;19922;-70
2023/04/12 08:50:42;;;;;;;;;;;;;;;-142.25;100.00;58004.16;4916242;29;19958;-71
2023/04/12 08:53:09;;;;;;;;;;;;;;;-142.25;100.00;58004.16;4917528;29;19991;-70
2023/04/12 08:55:34;;;;;;;;;;;;;;;-142.25;100.00;58004.16;4925544;29;19922;-71
2023/04/12 08:58:01;;;;;;;;;;;;;;;-142.25;100.00;58004.16;4916576;29;19982;-61
2023/04/12 09:00:26;;;;;;;;;;;;;;;-142.25;100.00;58004.16;4914482;29;19946;-61
2023/04/12 09:02:52;;;;;;;;;;;;;;;-142.25;100.00;58004.16;4915713;29;19927;-61
2023/04/12 09:05:17;;;;;;;;;;;;;;;-142.25;100.00;58004.16;4915040;29;19978;-62
2023/04/12 09:07:43;;;;;;;;;;;;;;;-142.25;100.00;58004.16;4925767;29;20010;-63
2023/04/12 09:10:08;;;;;;;;;;;;;;;-142.25;100.00;58004.16;4912438;29;19922;-62
2023/04/12 09:12:34;;;;;;;;;;;;;;;-142.25;100.00;58004.16;4914571;29;19927;-62
2023/04/12 09:15:11;;;;;;;;;;;;;;;-142.25;100.00;58004.16;4914285;29;19930;-65
2023/04/12 09:17:37;;;;;;;;;;;;;;;-142.25;100.00;58004.16;4915486;29;20022;-68
2023/04/12 09:20:22;;;;;;;;;;;;;;;-142.25;100.00;58004.16;4917151;29;19918;-68
2023/04/12 09:22:48;;;;;;;;;;;;;;;-142.25;100.00;58004.16;4910955;29;20233;-65
2023/04/12 09:25:14;;;;;;;;;;;;;;;-142.25;100.00;58004.16;4914650;29;19990;-67
2023/04/12 09:27:50;;;;;;;;;;;;;;;-142.25;100.00;58004.16;4914256;29;19926;-69
2023/04/12 09:30:16;;;;;;;;;;;;;;;-142.25;100.00;58004.16;4915781;29;20397;-64
2023/04/12 09:32:42;;;;;;;;;;;;;;;-142.25;100.00;58004.16;4915082;29;19934;-66
2023/04/12 09:35:07;;;;;;;;;;;;;;;-142.25;100.00;58004.16;4915408;29;19922;-65
2023/04/12 09:37:33;;;;;;;;;;;;;;;-142.25;100.00;58004.16;4915929;29;20485;-63
2023/04/12 09:40:00;;;;;;;;;;;;;;;-142.25;100.00;58004.16;4914159;29;19931;-65
2023/04/12 09:42:27;;;;;;;;;;;;;;;-142.25;100.00;58004.16;4913157;29;19981;-65
2023/04/12 09:44:56;;;;;;;;;;;;;;;-142.25;100.00;58004.16;4915675;29;20046;-65
2023/04/12 09:47:21;;;;;;;;;;;;;;;-142.25;100.00;58004.16;4914978;29;19930;-64
2023/04/12 09:49:47;;;;;;;;;;;;;;;-142.25;100.00;58004.16;4913559;29;19922;-64
2023/04/12 09:52:13;;;;;;;;;;;;;;;-142.25;100.00;58004.16;4916405;29;19927;-66
2023/04/12 09:54:43;;;;;;;;;;;;;;;-142.25;100.00;58004.16;4914446;29;19960;-63
2023/04/12 09:57:09;;;;;;;;;;;;;;;-142.25;100.00;58004.16;4916083;29;19998;-62
2023/04/12 09:59:36;;;;;;;;;;;;;;;-142.25;100.00;58004.16;4914898;29;20426;-64
2023/04/12 10:02:04;;;;;;;;;;;;;;;-142.25;100.00;58004.16;4916645;29;20044;-63
2023/04/12 10:04:30;;;;;;;;;;;;;;;-142.25;100.00;58004.16;4914733;29;19986;-63
2023/04/12 10:06:59;;;;;;;;;;;;;;;-142.25;100.00;58004.16;4915688;29;20013;-63
2023/04/12 10:09:26;;;;;;;;;;;;;;;-142.25;100.00;58004.16;4913892;29;19922;-64
2023/04/12 10:11:52;;;;;;;;;;;;;;;-142.25;100.00;58004.16;4913040;29;20400;-65
2023/04/12 10:14:20;;;;;;;;;;;;;;;-142.25;100.00;58004.16;4912521;29;19927;-65
2023/04/12 10:16:45;;;;;;;;;;;;;;;-142.25;100.00;58004.16;4913754;29;20073;-66
2023/04/12 10:19:11;;;;;;;;;;;;;;;-142.25;100.00;58004.16;4914033;29;19927;-65
2023/04/12 10:21:37;;;;;;;;;;;;;;;-142.25;100.00;58004.16;4916561;29;20400;-66
2023/04/12 10:24:05;;;;;;;;;;;;;;;-142.25;100.00;58004.16;4914693;29;19923;-62
2023/04/12 10:26:31;;;;;;;;;;;;;;;-142.25;100.00;58004.16;4915547;29;20049;-67
2023/04/12 10:29:15;;;;;;;;;;;;;;;-142.25;100.00;58004.16;4914935;29;20298;-68
2023/04/12 10:31:41;;;;;;;;;;;;;;;-142.25;100.00;58004.16;4917270;29;20001;-69
2023/04/12 10:34:07;;;;;;;;;;;;;;;-142.25;100.00;58004.16;4917733;29;19930;-69
2023/04/12 10:36:52;;;;;;;;;;;;;;;-142.25;100.00;58004.16;4913016;29;19926;-69
2023/04/12 10:39:33;;;;;;;;;;;;;;;-142.25;100.00;58004.16;4911593;29;19931;-69
2023/04/12 10:42:17;;;;;;;;;;;;;;;-142.25;100.00;58004.16;4915778;29;19922;-67
2023/04/12 10:44:43;;;;;;;;;;;;;;;-142.25;100.00;58004.16;4914550;29;19918;-65
2023/04/12 10:47:10;;;;;;;;;;;;;;;-142.25;100.00;58004.16;4919337;29;19977;-64
2023/04/12 10:49:36;;;;;;;;;;;;;;;-142.25;100.00;58004.16;4915152;29;19954;-66
2023/04/12 10:52:07;;;;;;;;;;;;;;;-142.25;100.00;58004.16;4913338;29;19931;-64
2023/04/12 10:54:34;;;;;;;;;;;;;;;-142.25;100.00;58004.16;4926521;28;19934;-68
2023/04/12 10:57:00;;;;;;;;;;;;;;;-142.25;100.00;58004.16;4913201;29;20017;-66
2023/04/12 10:59:58;;;;;;;;;;;;;;;-142.25;100.00;58004.16;4919548;29;19923;-67
2023/04/12 11:02:23;;;;;;;;;;;;;;;-142.25;100.00;58004.16;4912967;29;19930;-68
2023/04/12 11:05:08;;;;;;;;;;;;;;;-142.25;100.00;58004.16;4912290;29;19977;-67
2023/04/12 11:08:10;;;;;;;;;;;;;;;-142.25;100.00;58004.16;4902191;29;19927;-68
2023/04/12 11:10:49;;;;;;;;;;;;;;;-142.25;100.00;58004.16;4901911;29;19933;-70
2023/04/12 11:13:20;;;;;;;;;;;;;;;-142.25;100.00;58004.16;4889676;29;19945;-66
2023/04/12 11:15:45;;;;;;;;;;;;;;;-142.25;100.00;58004.16;4901115;29;19949;-67
2023/04/12 11:18:11;;;;;;;;;;;;;;;-142.25;100.00;58004.16;4901748;29;19931;-67
2023/04/12 11:20:38;;;;;;;;;;;;;;;-142.25;100.00;58004.16;4902231;29;20459;-67
2023/04/12 11:23:04;;;;;;;;;;;;;;;-142.25;100.00;58004.16;4901045;29;19930;-67
2023/04/12 11:25:30;;;;;;;;;;;;;;;-142.25;100.00;58004.16;4902132;29;19958;-67
2023/04/12 11:27:55;;;;;;;;;;;;;;;-142.25;100.00;58004.16;4894629;29;19931;-68
2023/04/12 11:30:25;;;;;;;;;;;;;;;-142.25;100.00;58004.16;4895206;29;19950;-67
2023/04/12 11:32:51;;;;;;;;;;;;;;;-142.25;100.00;58004.16;4901274;29;19923;-66
2023/04/12 11:35:19;;;;;;;;;;;;;;;-142.25;100.00;58004.16;4901644;29;19934;-64
2023/04/12 11:37:45;;;;;;;;;;;;;;;-142.25;100.00;58004.16;4902316;29;20015;-68
2023/04/12 11:40:10;;;;;;;;;;;;;;;-142.25;100.00;58004.16;4901778;29;20417;-67
2023/04/12 11:42:38;;;;;;;;;;;;;;;-142.25;100.00;58004.16;4910117;29;20619;-68
2023/04/12 11:45:04;;;;;;;;;;;;;;;-142.25;100.00;58004.16;4916128;29;19930;-68
2023/04/12 11:47:29;;;;;;;;;;;;;;;-142.25;100.00;58004.16;4913412;29;19927;-68
2023/04/12 11:49:56;;;;;;;;;;;;;;;-142.25;100.00;58004.16;4915668;29;19919;-69
2023/04/12 11:52:27;;;;;;;;;;;;;;;-142.25;100.00;58004.16;4912775;29;19934;-71
2023/04/12 11:54:55;;;;;;;;;;;;;;;-142.25;100.00;58004.16;4910634;29;19983;-68
2023/04/12 11:57:21;;;;;;;;;;;;;;;-142.25;100.00;58004.16;4911757;29;19933;-69
2023/04/12 11:59:47;;;;;;;;;;;;;;;-142.25;100.00;58004.16;4916977;29;19931;-69
2023/04/12 12:02:14;;;;;;;;;;;;;;;-142.25;100.00;58004.16;4916495;29;20379;-68
2023/04/12 12:04:46;;;;;;;;;;;;;;;-142.25;100.00;58004.16;4917722;29;19927;-68
2023/04/12 12:07:13;;;;;;;;;;;;;;;-142.25;100.00;58004.16;4915957;29;20376;-68
2023/04/12 12:09:40;;;;;;;;;;;;;;;-142.25;100.00;58004.16;4916163;29;19927;-69
2023/04/12 12:12:05;;;;;;;;;;;;;;;-142.25;100.00;58004.16;4918873;29;19927;-69
2023/04/12 12:14:33;;;;;;;;;;;;;;;-142.25;100.00;58004.16;4915167;29;19950;-69
2023/04/12 12:16:58;;;;;;;;;;;;;;;-142.25;100.00;58004.16;4917541;29;19927;-68
2023/04/12 12:19:31;;;;;;;;;;;;;;;-142.25;100.00;58004.16;4917314;29;20194;-67